createdAt,value
2018-04-15T00:01:05.493Z,10.42
2018-04-15T00:02:15.671Z,10.48
2018-04-15T00:03:25.840Z,10.4
2018-04-15T00:04:36.073Z,10.37
2018-04-15T00:05:46.031Z,10.34
2018-04-15T00:06:56.162Z,10.42
2018-04-15T00:08:06.337Z,10.4
2018-04-15T00:09:16.479Z,10.36
2018-04-15T00:10:26.633Z,10.34
2018-04-15T00:11:36.814Z,10.39
2018-04-15T00:12:47.053Z,10.39
2018-04-15T00:13:57.304Z,10.4
2018-04-15T00:15:07.519Z,10.27
2018-04-15T00:16:17.664Z,10.29
2018-04-15T00:17:28.171Z,10.21
2018-04-15T00:18:38.348Z,10.42
2018-04-15T00:19:48.228Z,10.27
2018-04-15T00:20:58.179Z,10.39
2018-04-15T00:22:08.410Z,10.37
2018-04-15T00:23:18.622Z,10.33
2018-04-15T00:24:29.030Z,10.4
2018-04-15T00:25:39.224Z,10.26
2018-04-15T00:26:49.353Z,10.3
2018-04-15T00:27:59.540Z,10.37
2018-04-15T00:29:09.778Z,10.33
2018-04-15T00:30:20.026Z,10.32
2018-04-15T00:31:30.184Z,10.39
2018-04-15T00:32:40.406Z,10.36
2018-04-15T00:33:50.653Z,10.37
2018-04-15T00:35:00.779Z,10.3
2018-04-15T00:36:10.916Z,10.27
2018-04-15T00:37:21.067Z,10.36
2018-04-15T00:38:31.206Z,10.27
2018-04-15T00:39:41.362Z,10.33
2018-04-15T00:40:51.131Z,10.32
2018-04-15T00:42:01.276Z,10.3
2018-04-15T00:43:11.437Z,10.24
2018-04-15T00:44:21.703Z,10.19
2018-04-15T00:45:31.604Z,10.21
2018-04-15T00:46:41.541Z,10.1
2018-04-15T00:47:51.726Z,10
2018-04-15T00:49:01.841Z,10.02
2018-04-15T00:50:11.981Z,9.96
2018-04-15T00:51:22.159Z,9.98
2018-04-15T00:52:32.380Z,9.95
2018-04-15T00:53:42.579Z,10.08
2018-04-15T00:54:52.721Z,10.05
2018-04-15T00:56:02.926Z,9.92
2018-04-15T00:57:13.070Z,9.92
2018-04-15T00:58:23.348Z,9.84
2018-04-15T00:59:33.574Z,9.85
2018-04-15T01:00:43.772Z,9.84
2018-04-15T01:01:54.043Z,9.78
2018-04-15T01:03:04.211Z,9.75
2018-04-15T01:04:14.442Z,9.71
2018-04-15T01:05:24.884Z,9.66
2018-04-15T01:06:35.030Z,9.6
2018-04-15T01:07:45.219Z,9.62
2018-04-15T01:08:55.353Z,9.48
2018-04-15T01:10:05.588Z,9.62
2018-04-15T01:11:15.838Z,9.56
2018-04-15T01:12:26.056Z,9.53
2018-04-15T01:13:36.242Z,9.5
2018-04-15T01:14:46.543Z,9.52
2018-04-15T01:15:56.774Z,9.56
2018-04-15T01:17:07.005Z,9.52
2018-04-15T01:18:17.154Z,9.53
2018-04-15T01:19:27.360Z,9.5
2018-04-15T01:20:37.590Z,9.52
2018-04-15T01:21:47.909Z,9.55
2018-04-15T01:22:58.051Z,9.59
2018-04-15T01:24:08.300Z,9.62
2018-04-15T01:25:18.197Z,9.52
2018-04-15T01:26:28.336Z,9.56
2018-04-15T01:27:38.497Z,9.58
2018-04-15T01:28:48.378Z,9.5
2018-04-15T01:29:58.535Z,9.55
2018-04-15T01:31:08.658Z,9.58
2018-04-15T01:32:18.535Z,9.52
2018-04-15T01:33:28.703Z,9.52
2018-04-15T01:34:38.837Z,9.5
2018-04-15T01:35:49.033Z,9.52
2018-04-15T01:36:59.223Z,9.6
2018-04-15T01:38:09.391Z,9.62
2018-04-15T01:39:19.557Z,9.62
2018-04-15T01:40:29.736Z,9.6
2018-04-15T01:41:39.863Z,9.58
2018-04-15T01:42:50.033Z,9.59
2018-04-15T01:44:00.147Z,9.5
2018-04-15T01:45:10.302Z,9.47
2018-04-15T01:46:20.566Z,9.56
2018-04-15T01:47:30.794Z,9.5
2018-04-15T01:48:40.947Z,9.56
2018-04-15T01:49:51.136Z,9.62
2018-04-15T01:51:01.305Z,9.59
2018-04-15T01:52:11.565Z,9.55
2018-04-15T01:53:21.896Z,9.52
2018-04-15T01:54:32.050Z,9.52
2018-04-15T01:55:42.292Z,9.53
2018-04-15T01:56:52.487Z,9.56
2018-04-15T01:58:02.666Z,9.52
2018-04-15T01:59:12.550Z,9.56
2018-04-15T02:00:22.364Z,9.56
2018-04-15T02:01:32.238Z,9.37
2018-04-15T02:02:42.404Z,9.56
2018-04-15T02:03:52.537Z,9.55
2018-04-15T02:05:02.752Z,9.56
2018-04-15T02:06:12.918Z,9.56
2018-04-15T02:07:23.069Z,9.56
2018-04-15T02:08:33.220Z,9.34
2018-04-15T02:09:43.447Z,9.41
2018-04-15T02:10:53.597Z,9.34
2018-04-15T02:12:03.521Z,9.37
2018-04-15T02:13:13.681Z,9.41
2018-04-15T02:14:23.966Z,9.55
2018-04-15T02:15:34.158Z,9.5
2018-04-15T02:16:44.339Z,9.52
2018-04-15T02:17:54.594Z,9.5
2018-04-15T02:19:04.747Z,9.53
2018-04-15T02:20:14.972Z,9.5
2018-04-15T02:21:24.846Z,9.53
2018-04-15T02:22:34.987Z,9.53
2018-04-15T02:23:45.154Z,9.48
2018-04-15T02:24:55.308Z,9.53
2018-04-15T02:26:05.539Z,9.5
2018-04-15T02:27:15.685Z,9.59
2018-04-15T02:28:25.816Z,9.55
2018-04-15T02:29:35.971Z,9.58
2018-04-15T02:30:46.173Z,9.58
2018-04-15T02:31:56.366Z,9.5
2018-04-15T02:33:06.539Z,9.5
2018-04-15T02:34:16.706Z,9.62
2018-04-15T02:35:26.845Z,9.65
2018-04-15T02:36:37.078Z,9.63
2018-04-15T02:37:47.256Z,9.65
2018-04-15T02:38:57.524Z,9.59
2018-04-15T02:40:07.747Z,9.63
2018-04-15T02:41:17.671Z,9.6
2018-04-15T02:42:27.453Z,9.65
2018-04-15T02:43:37.581Z,9.59
2018-04-15T02:44:47.785Z,9.59
2018-04-15T02:45:57.938Z,9.59
2018-04-15T02:47:07.831Z,9.62
2018-04-15T02:48:18.009Z,9.7
2018-04-15T02:49:28.174Z,9.71
2018-04-15T02:50:38.319Z,9.65
2018-04-15T02:51:48.448Z,9.63
2018-04-15T02:52:58.630Z,9.62
2018-04-15T02:54:08.901Z,9.67
2018-04-15T02:55:19.141Z,9.65
2018-04-15T02:56:29.387Z,9.65
2018-04-15T02:57:39.167Z,9.74
2018-04-15T02:58:49.438Z,9.74
2018-04-15T02:59:59.601Z,9.78
2018-04-15T03:01:09.827Z,9.78
2018-04-15T03:02:20.035Z,9.8
2018-04-15T03:03:30.308Z,9.74
2018-04-15T03:04:40.529Z,9.8
2018-04-15T03:05:50.421Z,9.8
2018-04-15T03:07:00.647Z,9.77
2018-04-15T03:08:10.858Z,9.84
2018-04-15T03:09:21.047Z,9.75
2018-04-15T03:10:31.188Z,9.62
2018-04-15T03:11:41.380Z,9.62
2018-04-15T03:12:51.543Z,9.62
2018-04-15T03:14:01.736Z,9.53
2018-04-15T03:15:11.963Z,9.53
2018-04-15T03:16:22.126Z,9.67
2018-04-15T03:17:32.284Z,9.63
2018-04-15T03:18:42.397Z,9.53
2018-04-15T03:19:52.585Z,9.52
2018-04-15T03:21:02.764Z,9.5
2018-04-15T03:22:12.669Z,9.58
2018-04-15T03:23:22.542Z,9.58
2018-04-15T03:24:32.682Z,9.53
2018-04-15T03:25:42.825Z,9.42
2018-04-15T03:26:52.974Z,9.41
2018-04-15T03:28:03.111Z,9.41
2018-04-15T03:29:13.263Z,9.42
2018-04-15T03:30:23.457Z,9.37
2018-04-15T03:31:33.617Z,9.34
2018-04-15T03:32:43.499Z,9.44
2018-04-15T03:33:53.675Z,9.41
2018-04-15T03:35:03.821Z,9.38
2018-04-15T03:36:13.984Z,9.47
2018-04-15T03:37:24.244Z,9.41
2018-04-15T03:38:34.373Z,9.4
2018-04-15T03:39:44.500Z,9.42
2018-04-15T03:40:54.634Z,9.53
2018-04-15T03:42:04.768Z,9.4
2018-04-15T03:43:14.910Z,9.37
2018-04-15T03:44:24.807Z,9.56
2018-04-15T03:45:34.997Z,9.4
2018-04-15T03:46:45.134Z,9.47
2018-04-15T03:47:55.326Z,9.4
2018-04-15T03:49:05.481Z,9.4
2018-04-15T03:50:15.731Z,9.41
2018-04-15T03:51:26.008Z,9.38
2018-04-15T03:52:36.198Z,9.41
2018-04-15T03:53:46.347Z,9.48
2018-04-15T03:54:56.481Z,9.4
2018-04-15T03:56:06.616Z,9.42
2018-04-15T03:57:16.740Z,9.4
2018-04-15T03:58:26.566Z,9.44
2018-04-15T03:59:36.708Z,9.44
2018-04-15T04:00:46.837Z,9.5
2018-04-15T04:01:56.985Z,9.53
2018-04-15T04:03:07.215Z,9.53
2018-04-15T04:04:17.515Z,9.55
2018-04-15T04:05:27.025Z,9.42
2018-04-15T04:06:37.168Z,9.44
2018-04-15T04:07:47.315Z,9.45
2018-04-15T04:08:57.450Z,9.48
2018-04-15T04:10:07.651Z,9.47
2018-04-15T04:11:17.802Z,9.45
2018-04-15T04:12:28.033Z,9.52
2018-04-15T04:13:38.207Z,9.37
2018-04-15T04:14:48.365Z,9.5
2018-04-15T04:15:58.506Z,9.41
2018-04-15T04:17:08.670Z,9.37
2018-04-15T04:18:18.642Z,9.42
2018-04-15T04:19:28.954Z,9.58
2018-04-15T04:20:39.123Z,9.4
2018-04-15T04:21:49.283Z,9.41
2018-04-15T04:22:59.441Z,9.44
2018-04-15T04:24:09.562Z,9.45
2018-04-15T04:25:19.885Z,9.47
2018-04-15T04:26:29.905Z,9.41
2018-04-15T04:27:41.005Z,9.34
2018-04-15T04:28:51.161Z,9.4
2018-04-15T04:30:01.295Z,9.52
2018-04-15T04:31:11.451Z,9.47
2018-04-15T04:32:21.332Z,9.5
2018-04-15T04:33:31.571Z,9.45
2018-04-15T04:34:41.734Z,9.52
2018-04-15T04:35:51.869Z,9.38
2018-04-15T04:37:02.019Z,9.41
2018-04-15T04:38:12.382Z,9.35
2018-04-15T04:39:22.534Z,9.37
2018-04-15T04:40:32.744Z,9.42
2018-04-15T04:41:42.942Z,9.41
2018-04-15T04:42:53.088Z,9.42
2018-04-15T04:44:03.252Z,9.29
2018-04-15T04:45:13.388Z,9.4
2018-04-15T04:46:23.528Z,9.35
2018-04-15T04:47:33.685Z,9.34
2018-04-15T04:48:43.825Z,9.3
2018-04-15T04:49:53.985Z,9.35
2018-04-15T04:51:04.099Z,9.35
2018-04-15T04:52:14.244Z,9.37
2018-04-15T04:53:24.440Z,9.35
2018-04-15T04:54:34.574Z,9.41
2018-04-15T04:55:44.797Z,9.34
2018-04-15T04:56:55.007Z,9.27
2018-04-15T04:58:05.209Z,9.33
2018-04-15T04:59:15.488Z,9.26
2018-04-15T05:00:25.651Z,9.27
2018-04-15T05:01:35.425Z,9.23
2018-04-15T05:02:45.638Z,9.23
2018-04-15T05:03:55.836Z,9.29
2018-04-15T05:05:05.731Z,9.22
2018-04-15T05:06:15.862Z,9.3
2018-04-15T05:07:26.038Z,9.34
2018-04-15T05:08:35.934Z,9.3
2018-04-15T05:09:46.042Z,9.3
2018-04-15T05:10:55.973Z,9.4
2018-04-15T05:12:06.086Z,9.47
2018-04-15T05:13:16.269Z,9.42
2018-04-15T05:14:26.434Z,9.41
2018-04-15T05:15:36.646Z,9.42
2018-04-15T05:16:46.899Z,9.4
2018-04-15T05:17:57.080Z,9.38
2018-04-15T05:19:07.008Z,9.37
2018-04-15T05:20:17.194Z,9.42
2018-04-15T05:21:27.331Z,9.38
2018-04-15T05:22:37.468Z,9.44
2018-04-15T05:23:47.637Z,9.44
2018-04-15T05:24:57.798Z,9.44
2018-04-15T05:26:07.855Z,9.47
2018-04-15T05:27:18.028Z,9.35
2018-04-15T05:28:28.194Z,9.44
2018-04-15T05:29:38.350Z,9.47
2018-04-15T05:30:48.505Z,9.33
2018-04-15T05:31:58.704Z,9.3
2018-04-15T05:33:08.591Z,9.38
2018-04-15T05:34:18.536Z,9.38
2018-04-15T05:35:28.701Z,9.33
2018-04-15T05:36:38.835Z,9.26
2018-04-15T05:37:48.979Z,9.33
2018-04-15T05:38:58.875Z,9.35
2018-04-15T05:40:09.070Z,9.33
2018-04-15T05:41:19.234Z,9.27
2018-04-15T05:42:29.430Z,9.27
2018-04-15T05:43:39.323Z,9.29
2018-04-15T05:44:49.520Z,9.27
2018-04-15T05:45:59.726Z,9.27
2018-04-15T05:47:09.887Z,9.26
2018-04-15T05:48:20.047Z,9.35
2018-04-15T05:49:30.232Z,9.33
2018-04-15T05:50:40.104Z,9.3
2018-04-15T05:51:50.289Z,9.3
2018-04-15T05:53:00.482Z,9.25
2018-04-15T05:54:10.737Z,9.35
2018-04-15T05:55:20.876Z,9.42
2018-04-15T05:56:31.044Z,9.5
2018-04-15T05:57:40.942Z,9.52
2018-04-15T05:58:50.841Z,9.59
2018-04-15T06:00:00.774Z,9.74
2018-04-15T06:01:10.687Z,9.66
2018-04-15T06:02:20.822Z,9.83
2018-04-15T06:03:30.980Z,9.8
2018-04-15T06:04:41.186Z,9.81
2018-04-15T06:05:51.330Z,9.84
2018-04-15T06:07:01.501Z,9.89
2018-04-15T06:08:11.415Z,9.85
2018-04-15T06:09:21.573Z,10
2018-04-15T06:10:31.731Z,10.02
2018-04-15T06:11:41.900Z,10.08
2018-04-15T06:12:52.162Z,9.99
2018-04-15T06:14:02.531Z,10.13
2018-04-15T06:15:12.664Z,10.19
2018-04-15T06:16:22.841Z,10.26
2018-04-15T06:17:32.968Z,10.4
2018-04-15T06:18:43.141Z,10.33
2018-04-15T06:19:53.327Z,10.22
2018-04-15T06:21:03.536Z,10.34
2018-04-15T06:22:13.682Z,10.39
2018-04-15T06:23:23.839Z,10.47
2018-04-15T06:24:34.091Z,10.52
2018-04-15T06:25:44.468Z,10.55
2018-04-15T06:26:54.639Z,10.55
2018-04-15T06:28:04.798Z,10.65
2018-04-15T06:29:14.950Z,10.58
2018-04-15T06:30:25.115Z,10.75
2018-04-15T06:31:35.286Z,10.72
2018-04-15T06:32:45.455Z,10.73
2018-04-15T06:33:55.642Z,10.83
2018-04-15T06:35:05.615Z,10.84
2018-04-15T06:36:15.759Z,10.9
2018-04-15T06:37:25.913Z,10.9
2018-04-15T06:38:36.097Z,10.92
2018-04-15T06:39:45.995Z,11.02
2018-04-15T06:40:56.148Z,11.09
2018-04-15T06:42:06.316Z,11.12
2018-04-15T06:43:16.463Z,11.21
2018-04-15T06:44:26.677Z,11.13
2018-04-15T06:45:36.845Z,11.27
2018-04-15T06:46:46.754Z,11.33
2018-04-15T06:47:56.935Z,11.39
2018-04-15T06:49:07.085Z,11.42
2018-04-15T06:50:17.334Z,11.42
2018-04-15T06:51:27.492Z,11.31
2018-04-15T06:52:37.657Z,11.35
2018-04-15T06:53:47.792Z,11.49
2018-04-15T06:54:57.953Z,11.45
2018-04-15T06:56:08.104Z,11.46
2018-04-15T06:57:18.229Z,11.53
2018-04-15T06:58:28.408Z,11.64
2018-04-15T06:59:38.554Z,11.68
2018-04-15T07:00:48.799Z,11.74
2018-04-15T07:01:58.949Z,11.8
2018-04-15T07:03:09.261Z,11.86
2018-04-15T07:04:19.488Z,11.86
2018-04-15T07:05:29.664Z,11.9
2018-04-15T07:06:39.875Z,12.01
2018-04-15T07:07:50.115Z,12.07
2018-04-15T07:09:00.261Z,12.05
2018-04-15T07:10:10.394Z,12.16
2018-04-15T07:11:20.575Z,12.19
2018-04-15T07:12:30.719Z,12.23
2018-04-15T07:13:40.871Z,12.23
2018-04-15T07:14:51.018Z,12.31
2018-04-15T07:16:01.197Z,12.27
2018-04-15T07:17:11.378Z,12.42
2018-04-15T07:18:21.553Z,12.37
2018-04-15T07:19:31.838Z,12.39
2018-04-15T07:20:42.169Z,12.48
2018-04-15T07:21:52.347Z,12.5
2018-04-15T07:23:02.524Z,12.48
2018-04-15T07:24:12.460Z,12.47
2018-04-15T07:25:22.604Z,12.52
2018-04-15T07:26:32.751Z,12.56
2018-04-15T07:27:42.940Z,12.62
2018-04-15T07:28:53.149Z,12.7
2018-04-15T07:30:03.375Z,12.7
2018-04-15T07:31:13.637Z,12.88
2018-04-15T07:32:23.850Z,12.8
2018-04-15T07:33:34.070Z,13.01
2018-04-15T07:34:44.306Z,13.03
2018-04-15T07:35:54.496Z,13.12
2018-04-15T07:37:04.717Z,13.26
2018-04-15T07:38:14.915Z,13.21
2018-04-15T07:39:25.190Z,13.26
2018-04-15T07:40:35.453Z,13.19
2018-04-15T07:41:45.687Z,13.27
2018-04-15T07:42:55.932Z,13.34
2018-04-15T07:44:06.215Z,13.33
2018-04-15T07:45:16.389Z,13.44
2018-04-15T07:46:26.537Z,13.46
2018-04-15T07:47:36.353Z,13.63
2018-04-15T07:48:46.544Z,13.59
2018-04-15T07:49:56.745Z,13.71
2018-04-15T07:51:06.911Z,13.81
2018-04-15T07:52:17.113Z,13.86
2018-04-15T07:53:27.285Z,14.04
2018-04-15T07:54:37.446Z,14.03
2018-04-15T07:55:47.656Z,14
2018-04-15T07:56:57.986Z,14.02
2018-04-15T07:58:08.195Z,14.14
2018-04-15T07:59:18.380Z,14.34
2018-04-15T08:00:28.565Z,14.66
2018-04-15T08:01:38.563Z,15.17
2018-04-15T08:02:48.747Z,15.68
2018-04-15T08:03:58.648Z,16.49
2018-04-15T08:05:08.839Z,16.91
2018-04-15T08:06:19.054Z,16.9
2018-04-15T08:07:29.229Z,16.87
2018-04-15T08:08:39.377Z,16.69
2018-04-15T08:09:49.562Z,16.71
2018-04-15T08:10:59.734Z,16.79
2018-04-15T08:12:09.911Z,16.83
2018-04-15T08:13:20.092Z,16.84
2018-04-15T08:14:30.270Z,16.83
2018-04-15T08:15:40.557Z,16.82
2018-04-15T08:16:50.793Z,16.83
2018-04-15T08:18:01.006Z,16.89
2018-04-15T08:19:11.185Z,16.87
2018-04-15T08:20:21.452Z,16.9
2018-04-15T08:21:31.671Z,16.86
2018-04-15T08:22:44.470Z,16.98
2018-04-15T08:23:56.865Z,17.04
2018-04-15T08:25:06.763Z,17.14
2018-04-15T08:26:17.019Z,17.21
2018-04-15T08:27:27.243Z,17.3
2018-04-15T08:28:37.449Z,17.24
2018-04-15T08:29:48.655Z,17.24
2018-04-15T08:30:58.871Z,17.14
2018-04-15T08:34:38.687Z,16.93
2018-04-15T08:35:48.925Z,17.02
2018-04-15T08:43:20.175Z,17.54
2018-04-15T08:44:33.674Z,17.98
2018-04-15T08:45:43.898Z,18.05
2018-04-15T08:46:54.118Z,18.05
2018-04-15T08:48:04.360Z,17.94
2018-04-15T08:50:29.331Z,18.16
2018-04-15T08:51:39.478Z,18.1
2018-04-15T08:52:49.735Z,18.13
2018-04-15T08:53:59.901Z,18.26
2018-04-15T08:55:10.095Z,18.55
2018-04-15T08:56:20.288Z,18.91
2018-04-15T08:57:30.508Z,19.3
2018-04-15T08:58:41.782Z,19.74
2018-04-15T08:59:53.070Z,20.23
2018-04-15T09:01:05.747Z,20.61
2018-04-15T09:02:15.680Z,20.93
2018-04-15T09:03:25.613Z,21.2
2018-04-15T09:04:35.826Z,21.57
2018-04-15T09:05:46.026Z,22.11
2018-04-15T09:06:59.632Z,22.27
2018-04-15T09:08:11.405Z,22.4
2018-04-15T09:09:21.563Z,22.67
2018-04-15T09:10:31.486Z,23.01
2018-04-15T09:11:41.674Z,23.43
2018-04-15T09:12:51.890Z,23.79
2018-04-15T09:14:02.064Z,24
2018-04-15T09:15:12.359Z,24.07
2018-04-15T09:16:22.730Z,24.02
2018-04-15T09:17:33.038Z,24.02
2018-04-15T09:18:43.040Z,24.02
2018-04-15T09:19:53.034Z,23.95
2018-04-15T09:21:03.203Z,23.79
2018-04-15T09:22:13.423Z,23.65
2018-04-15T09:23:23.727Z,23.43
2018-04-15T09:24:33.907Z,23.14
2018-04-15T09:25:44.103Z,22.95
2018-04-15T09:26:54.403Z,22.68
2018-04-15T09:28:04.678Z,22.64
2018-04-15T09:29:14.882Z,22.52
2018-04-15T09:30:25.054Z,22.71
2018-04-15T09:31:35.323Z,22.86
2018-04-15T09:32:45.531Z,22.85
2018-04-15T09:33:55.737Z,22.86
2018-04-15T09:35:05.936Z,23.02
2018-04-15T09:36:16.321Z,23.05
2018-04-15T09:37:26.547Z,23.02
2018-04-15T09:38:37.874Z,23.01
2018-04-15T09:39:48.075Z,23.09
2018-04-15T09:40:58.077Z,23.11
2018-04-15T09:42:09.654Z,23.14
2018-04-15T09:44:36.192Z,23.4
2018-04-15T09:45:46.473Z,23.53
2018-04-15T09:46:56.698Z,23.68
2018-04-15T09:48:06.877Z,23.77
2018-04-15T09:49:17.085Z,23.82
2018-04-15T09:50:27.279Z,24.1
2018-04-15T09:51:37.464Z,24.19
2018-04-15T09:52:53.946Z,24.34
2018-04-15T09:54:06.261Z,24.31
2018-04-15T09:55:34.414Z,24.31
2018-04-15T09:56:44.660Z,24.45
2018-04-15T09:57:54.863Z,24.43
2018-04-15T09:59:04.798Z,24.47
2018-04-15T10:00:14.799Z,24.63
2018-04-15T10:01:25.005Z,24.75
2018-04-15T10:02:35.289Z,24.91
2018-04-15T10:03:45.470Z,25.1
2018-04-15T10:04:55.714Z,25.27
2018-04-15T10:06:05.899Z,25.29
2018-04-15T10:07:16.053Z,25.27
2018-04-15T10:08:26.284Z,25.27
2018-04-15T10:09:39.638Z,25.43
2018-04-15T10:10:49.889Z,25.49
2018-04-15T10:11:59.879Z,25.42
2018-04-15T10:13:10.143Z,25.44
2018-04-15T10:14:20.803Z,25.21
2018-04-15T10:15:31.023Z,25.07
2018-04-15T10:16:41.281Z,24.84
2018-04-15T10:17:51.484Z,24.78
2018-04-15T10:19:01.698Z,24.85
2018-04-15T10:20:16.373Z,25.13
2018-04-15T10:21:27.399Z,25.25
2018-04-15T10:23:52.378Z,25.27
2018-04-15T10:25:02.696Z,25.17
2018-04-15T10:26:12.928Z,25.07
2018-04-15T10:27:23.155Z,24.84
2018-04-15T10:28:33.356Z,24.87
2018-04-15T10:29:43.551Z,25.09
2018-04-15T10:30:53.774Z,25
2018-04-15T10:32:04.005Z,24.7
2018-04-15T10:33:14.248Z,24.47
2018-04-15T10:34:25.438Z,24.19
2018-04-15T10:35:35.620Z,23.75
2018-04-15T10:36:45.863Z,23.55
2018-04-15T10:37:56.121Z,23.36
2018-04-15T10:39:07.729Z,23.21
2018-04-15T10:40:18.434Z,22.95
2018-04-15T10:41:28.667Z,22.63
2018-04-15T10:42:38.620Z,22.55
2018-04-15T10:43:48.816Z,22.21
2018-04-15T10:44:59.018Z,22.06
2018-04-15T10:46:09.010Z,22.01
2018-04-15T10:47:19.299Z,22.05
2018-04-15T10:48:29.490Z,22.23
2018-04-15T10:49:39.811Z,22.2
2018-04-15T10:50:50.033Z,22.16
2018-04-15T10:52:00.246Z,22.16
2018-04-15T10:53:10.422Z,22.09
2018-04-15T10:54:20.237Z,22.26
2018-04-15T10:55:30.437Z,22.34
2018-04-15T10:56:40.645Z,22.33
2018-04-15T10:57:50.845Z,22.33
2018-04-15T10:59:01.044Z,22.31
2018-04-15T11:00:11.255Z,22.09
2018-04-15T11:01:21.429Z,21.97
2018-04-15T11:02:31.614Z,21.79
2018-04-15T11:03:41.843Z,21.83
2018-04-15T11:04:52.133Z,21.75
2018-04-15T11:06:01.993Z,21.69
2018-04-15T11:07:12.226Z,21.56
2018-04-15T11:08:22.495Z,21.4
2018-04-15T11:09:32.712Z,21.2
2018-04-15T11:10:42.911Z,20.96
2018-04-15T11:11:53.107Z,20.51
2018-04-15T11:13:03.382Z,20.23
2018-04-15T11:14:13.445Z,20.07
2018-04-15T11:15:23.714Z,19.83
2018-04-15T11:16:33.884Z,19.7
2018-04-15T11:17:44.135Z,19.52
2018-04-15T11:18:54.199Z,19.37
2018-04-15T11:20:04.517Z,19.3
2018-04-15T11:21:14.734Z,19.33
2018-04-15T11:22:24.925Z,19.21
2018-04-15T11:23:35.177Z,19.19
2018-04-15T11:24:45.380Z,19.18
2018-04-15T11:25:55.672Z,19.06
2018-04-15T11:27:05.858Z,19
2018-04-15T11:28:16.056Z,18.98
2018-04-15T11:29:26.268Z,18.91
2018-04-15T11:30:36.209Z,18.82
2018-04-15T11:31:46.421Z,18.84
2018-04-15T11:32:56.580Z,18.91
2018-04-15T11:34:06.770Z,19
2018-04-15T11:35:16.991Z,19.08
2018-04-15T11:36:27.053Z,19.08
2018-04-15T11:37:38.256Z,19.08
2018-04-15T11:38:48.617Z,19.15
2018-04-15T11:39:58.879Z,19.03
2018-04-15T11:41:09.119Z,18.93
2018-04-15T11:42:19.314Z,19
2018-04-15T11:43:29.502Z,19.13
2018-04-15T11:44:39.750Z,19.13
2018-04-15T11:45:49.947Z,19.05
2018-04-15T11:47:00.136Z,19
2018-04-15T11:48:10.407Z,18.98
2018-04-15T11:49:20.582Z,18.97
2018-04-15T11:50:30.881Z,19
2018-04-15T11:51:41.362Z,19.02
2018-04-15T11:52:51.603Z,19.12
2018-04-15T11:54:01.797Z,19.15
2018-04-15T11:55:12.064Z,19.15
2018-04-15T11:56:22.258Z,19.28
2018-04-15T11:57:32.422Z,19.25
2018-04-15T11:58:42.723Z,19.31
2018-04-15T11:59:52.988Z,19.28
2018-04-15T12:01:03.189Z,19.28
2018-04-15T12:02:13.557Z,19.34
2018-04-15T12:03:23.870Z,19.42
2018-04-15T12:04:34.053Z,19.58
2018-04-15T12:05:44.298Z,19.48
2018-04-15T12:06:54.499Z,19.53
2018-04-15T12:08:04.681Z,19.64
2018-04-15T12:09:14.667Z,19.56
2018-04-15T12:10:25.014Z,19.58
2018-04-15T12:11:35.261Z,19.61
2018-04-15T12:12:45.506Z,19.65
2018-04-15T12:13:55.463Z,19.71
2018-04-15T12:15:05.720Z,19.58
2018-04-15T12:16:15.981Z,19.63
2018-04-15T12:17:26.200Z,19.67
2018-04-15T12:18:36.456Z,19.56
2018-04-15T12:19:46.672Z,19.61
2018-04-15T12:20:56.877Z,19.58
2018-04-15T12:22:07.115Z,19.71
2018-04-15T12:23:17.583Z,19.76
2018-04-15T12:24:27.822Z,19.74
2018-04-15T12:25:37.819Z,19.85
2018-04-15T12:26:48.255Z,19.89
2018-04-15T12:27:58.505Z,19.82
2018-04-15T12:29:08.695Z,19.82
2018-04-15T12:30:18.933Z,19.89
2018-04-15T12:31:29.205Z,19.85
2018-04-15T12:32:39.176Z,19.8
2018-04-15T12:33:49.287Z,19.85
2018-04-15T12:34:59.694Z,19.8
2018-04-15T12:36:09.987Z,19.83
2018-04-15T12:37:20.167Z,19.82
2018-04-15T12:38:30.348Z,19.8
2018-04-15T12:39:40.657Z,19.82
2018-04-15T12:40:50.882Z,19.8
2018-04-15T12:42:01.115Z,19.64
2018-04-15T12:43:11.346Z,19.65
2018-04-15T12:44:21.570Z,19.63
2018-04-15T12:45:31.804Z,19.53
2018-04-15T12:46:42.050Z,19.56
2018-04-15T12:47:52.352Z,19.52
2018-04-15T12:49:02.536Z,19.6
2018-04-15T12:50:12.547Z,19.56
2018-04-15T12:51:22.736Z,19.49
2018-04-15T12:52:32.969Z,19.49
2018-04-15T12:53:43.404Z,19.49
2018-04-15T12:54:53.616Z,19.49
2018-04-15T12:56:03.869Z,19.61
2018-04-15T12:57:14.044Z,19.52
2018-04-15T12:58:24.288Z,19.46
2018-04-15T12:59:34.590Z,19.58
2018-04-15T13:00:44.895Z,19.58
2018-04-15T13:01:55.193Z,19.8
2018-04-15T13:03:05.446Z,19.95
2018-04-15T13:04:15.753Z,20.05
2018-04-15T13:05:25.958Z,20.17
2018-04-15T13:06:35.789Z,20.27
2018-04-15T13:07:46.020Z,20.45
2018-04-15T13:08:56.243Z,20.51
2018-04-15T13:10:06.470Z,20.54
2018-04-15T13:11:16.738Z,20.63
2018-04-15T13:12:27.105Z,20.6
2018-04-15T13:13:37.434Z,20.72
2018-04-15T13:14:47.656Z,20.66
2018-04-15T13:15:57.912Z,20.68
2018-04-15T13:17:08.127Z,20.73
2018-04-15T13:18:18.387Z,20.75
2018-04-15T13:19:28.645Z,20.78
2018-04-15T13:20:38.603Z,20.81
2018-04-15T13:21:48.878Z,20.82
2018-04-15T13:22:59.138Z,20.86
2018-04-15T13:24:09.449Z,20.79
2018-04-15T13:25:19.683Z,20.82
2018-04-15T13:26:29.934Z,20.76
2018-04-15T13:27:40.148Z,20.61
2018-04-15T13:28:50.170Z,20.63
2018-04-15T13:30:00.186Z,20.57
2018-04-15T13:31:10.664Z,20.49
2018-04-15T13:32:20.618Z,20.43
2018-04-15T13:33:30.624Z,20.38
2018-04-15T13:34:40.857Z,20.3
2018-04-15T13:35:51.111Z,20.28
2018-04-15T13:37:01.373Z,20.26
2018-04-15T13:38:11.604Z,20.23
2018-04-15T13:39:21.944Z,20.24
2018-04-15T13:40:32.217Z,20.28
2018-04-15T13:41:42.457Z,20.3
2018-04-15T13:42:52.684Z,20.35
2018-04-15T13:44:02.915Z,20.43
2018-04-15T13:45:12.929Z,20.51
2018-04-15T13:46:23.165Z,20.48
2018-04-15T13:47:33.597Z,20.51
2018-04-15T13:48:43.814Z,20.54
2018-04-15T13:49:54.070Z,20.57
2018-04-15T13:51:04.304Z,20.6
2018-04-15T13:52:14.544Z,20.53
2018-04-15T13:53:24.828Z,20.56
2018-04-15T13:54:35.081Z,20.43
2018-04-15T13:55:44.723Z,20.42
2018-04-15T13:56:54.930Z,20.45
2018-04-15T13:58:05.189Z,20.43
2018-04-15T13:59:15.100Z,20.43
2018-04-15T14:00:25.397Z,20.34
2018-04-15T14:01:35.692Z,20.46
2018-04-15T14:02:45.901Z,20.46
2018-04-15T14:03:55.867Z,20.45
2018-04-15T14:05:06.276Z,20.36
2018-04-15T14:06:16.583Z,20.36
2018-04-15T14:07:26.810Z,20.49
2018-04-15T14:08:37.049Z,20.41
2018-04-15T14:09:47.280Z,20.48
2018-04-15T14:10:57.497Z,20.49
2018-04-15T14:12:07.746Z,20.43
2018-04-15T14:13:17.976Z,20.51
2018-04-15T14:14:28.103Z,20.51
2018-04-15T14:15:38.318Z,20.35
2018-04-15T14:16:48.567Z,20.28
2018-04-15T14:17:58.823Z,20.27
2018-04-15T14:19:09.079Z,20.3
2018-04-15T14:20:19.375Z,20.3
2018-04-15T14:21:29.614Z,20.2
2018-04-15T14:22:39.868Z,20.11
2018-04-15T14:23:50.249Z,20.11
2018-04-15T14:25:00.503Z,20.04
2018-04-15T14:26:10.773Z,20.01
2018-04-15T14:27:20.978Z,20
2018-04-15T14:28:30.957Z,19.92
2018-04-15T14:29:40.945Z,19.86
2018-04-15T14:30:51.246Z,19.89
2018-04-15T14:32:01.463Z,19.92
2018-04-15T14:33:10.779Z,19.92
2018-04-15T14:34:20.891Z,19.89
2018-04-15T14:35:31.109Z,19.83
2018-04-15T14:36:41.339Z,19.89
2018-04-15T14:37:51.246Z,19.88
2018-04-15T14:39:01.460Z,19.82
2018-04-15T14:40:11.461Z,19.82
2018-04-15T14:41:21.773Z,19.82
2018-04-15T14:42:32.068Z,19.86
2018-04-15T14:43:41.698Z,19.79
2018-04-15T14:44:51.930Z,19.85
2018-04-15T14:46:02.242Z,19.74
2018-04-15T14:47:12.474Z,19.76
2018-04-15T14:48:22.695Z,19.74
2018-04-15T14:49:32.941Z,19.67
2018-04-15T14:50:43.164Z,19.71
2018-04-15T14:51:53.478Z,19.68
2018-04-15T14:53:03.705Z,19.65
2018-04-15T14:54:13.852Z,19.63
2018-04-15T14:55:24.099Z,19.58
2018-04-15T14:56:34.294Z,19.61
2018-04-15T14:57:44.470Z,19.7
2018-04-15T14:58:54.686Z,19.7
2018-04-15T15:00:04.903Z,19.74
2018-04-15T15:01:15.158Z,19.76
2018-04-15T15:02:25.354Z,19.74
2018-04-15T15:03:35.583Z,19.73
2018-04-15T15:04:45.789Z,19.79
2018-04-15T15:05:56.003Z,19.76
2018-04-15T15:07:06.199Z,19.71
2018-04-15T15:08:16.441Z,19.85
2018-04-15T15:09:26.629Z,19.86
2018-04-15T15:10:36.841Z,19.83
2018-04-15T15:11:47.054Z,19.82
2018-04-15T15:12:57.409Z,19.89
2018-04-15T15:14:07.635Z,19.88
2018-04-15T15:15:17.872Z,19.95
2018-04-15T15:16:28.100Z,19.93
2018-04-15T15:17:38.280Z,20
2018-04-15T15:18:48.247Z,19.93
2018-04-15T15:19:58.259Z,19.9
2018-04-15T15:21:08.450Z,19.95
2018-04-15T15:22:18.696Z,19.88
2018-04-15T15:23:28.947Z,19.9
2018-04-15T15:24:39.170Z,19.83
2018-04-15T15:25:49.394Z,19.82
2018-04-15T15:26:59.593Z,19.83
2018-04-15T15:28:09.896Z,19.86
2018-04-15T15:29:20.294Z,19.82
2018-04-15T15:30:30.199Z,19.92
2018-04-15T15:31:40.424Z,19.92
2018-04-15T15:32:50.640Z,19.88